createdAt,value
2024-02-08T00:01:55.961Z,5.50
2024-02-08T00:04:22.759Z,7.30
2024-02-08T00:06:49.454Z,7.40
2024-02-08T00:09:16.092Z,5.60
2024-02-08T00:11:42.816Z,5.80
2024-02-08T00:14:09.586Z,5.40
2024-02-08T00:16:38.354Z,5.60
2024-02-08T00:19:05.318Z,5.70
2024-02-08T00:21:33.668Z,7.00
2024-02-08T00:24:01.370Z,5.70
2024-02-08T00:26:28.058Z,5.30
2024-02-08T00:28:54.782Z,6.80
2024-02-08T00:31:21.446Z,5.20
2024-02-08T00:33:49.551Z,4.60
2024-02-08T00:36:16.409Z,4.20
2024-02-08T00:38:44.386Z,5.30
2024-02-08T00:41:11.194Z,6.90
2024-02-08T00:43:40.704Z,4.60
2024-02-08T00:46:07.792Z,4.70
2024-02-08T00:48:34.675Z,5.40
2024-02-08T00:51:01.390Z,9.20
2024-02-08T00:53:28.052Z,6.60
2024-02-08T00:55:54.718Z,6.30
2024-02-08T00:58:22.992Z,4.40
2024-02-08T01:00:50.019Z,4.20
2024-02-08T01:03:17.017Z,7.10
2024-02-08T01:05:44.465Z,5.70
2024-02-08T01:08:11.175Z,6.50
2024-02-08T01:10:38.011Z,6.10
2024-02-08T01:13:05.884Z,7.00
2024-02-08T01:15:32.696Z,4.90
2024-02-08T01:18:00.137Z,6.80
2024-02-08T01:20:29.487Z,6.20
2024-02-08T01:22:59.012Z,6.10
2024-02-08T01:25:25.683Z,7.30
2024-02-08T01:27:52.368Z,7.30
2024-02-08T01:30:19.438Z,7.00
2024-02-08T01:32:49.669Z,7.20
2024-02-08T01:35:23.381Z,8.40
2024-02-08T01:37:50.720Z,7.70
2024-02-08T01:40:18.526Z,6.10
2024-02-08T01:42:45.396Z,6.50
2024-02-08T01:45:21.518Z,6.50
2024-02-08T01:47:49.148Z,6.60
2024-02-08T01:50:16.521Z,9.20
2024-02-08T01:52:43.762Z,7.70
2024-02-08T01:55:11.247Z,6.20
2024-02-08T01:57:38.069Z,9.30
2024-02-08T02:00:05.691Z,7.50
2024-02-08T02:02:42.094Z,4.90
2024-02-08T02:05:19.001Z,6.50
2024-02-08T02:07:50.162Z,7.90
2024-02-08T02:10:18.468Z,8.10
2024-02-08T02:12:49.832Z,5.70
2024-02-08T02:15:18.507Z,6.00
2024-02-08T02:17:46.201Z,7.00
2024-02-08T02:20:14.259Z,6.00
2024-02-08T02:22:44.081Z,7.00
2024-02-08T02:25:12.130Z,5.60
2024-02-08T02:27:41.472Z,7.60
2024-02-08T02:30:17.025Z,7.10
2024-02-08T02:32:47.231Z,6.00
2024-02-08T02:35:17.871Z,5.50
2024-02-08T02:37:47.597Z,5.20
2024-02-08T02:42:52.714Z,6.40
2024-02-08T02:45:30.265Z,7.50
2024-02-08T02:47:59.558Z,5.60
2024-02-08T02:50:26.810Z,7.20
2024-02-08T02:52:53.802Z,5.20
2024-02-08T02:55:20.650Z,8.00
2024-02-08T02:57:48.584Z,6.80
2024-02-08T03:00:39.152Z,6.90
2024-02-08T03:03:13.411Z,7.80
2024-02-08T03:05:41.534Z,7.60
2024-02-08T03:08:08.363Z,7.20
2024-02-08T03:10:39.876Z,12.10
2024-02-08T03:13:08.980Z,7.50
2024-02-08T03:18:52.201Z,10.00
2024-02-08T03:21:19.640Z,8.80
2024-02-08T03:23:48.396Z,11.90
2024-02-08T03:26:17.263Z,11.00
2024-02-08T03:28:45.270Z,9.40
2024-02-08T03:31:12.884Z,12.30
2024-02-08T03:33:39.662Z,8.70
2024-02-08T03:36:09.812Z,9.10
2024-02-08T03:38:38.867Z,13.00
2024-02-08T03:41:05.681Z,10.30
2024-02-08T03:43:34.369Z,10.50
2024-02-08T03:46:03.131Z,11.80
2024-02-08T03:48:30.308Z,10.10
2024-02-08T03:51:02.158Z,13.00
2024-02-08T03:53:29.163Z,11.50
2024-02-08T03:55:57.033Z,9.00
2024-02-08T03:58:24.964Z,9.00
2024-02-08T04:00:54.941Z,11.10
2024-02-08T04:03:41.141Z,9.20
2024-02-08T04:06:27.862Z,9.40
2024-02-08T04:09:09.792Z,10.00
2024-02-08T04:11:55.480Z,12.80
2024-02-08T04:14:40.801Z,10.00
2024-02-08T04:17:26.406Z,10.80
2024-02-08T04:20:11.847Z,9.60
2024-02-08T04:22:57.434Z,8.50
2024-02-08T04:25:42.966Z,8.80
2024-02-08T04:28:28.564Z,6.80
2024-02-08T04:31:13.964Z,7.70
2024-02-08T04:33:59.630Z,7.10
2024-02-08T04:36:45.034Z,8.80
2024-02-08T04:39:30.444Z,7.20
2024-02-08T04:42:15.984Z,6.20
2024-02-08T04:45:01.403Z,7.80
2024-02-08T04:47:46.879Z,8.20
2024-02-08T04:50:34.374Z,7.00
2024-02-08T04:53:19.572Z,6.30
2024-02-08T04:55:47.179Z,7.30
2024-02-08T04:58:36.448Z,8.90
2024-02-08T05:01:04.701Z,9.10
2024-02-08T05:03:38.270Z,6.80
2024-02-08T05:06:12.303Z,7.70
2024-02-08T05:08:40.174Z,5.70
2024-02-08T05:11:10.973Z,8.10
2024-02-08T05:13:42.084Z,9.40
2024-02-08T05:16:15.431Z,7.70
2024-02-08T05:18:46.666Z,8.10
2024-02-08T05:21:15.242Z,7.80
2024-02-08T05:23:42.988Z,6.70
2024-02-08T05:26:20.876Z,12.80
2024-02-08T05:28:47.740Z,10.10
2024-02-08T05:31:15.125Z,8.70
2024-02-08T05:33:42.430Z,7.70
2024-02-08T05:36:12.709Z,7.40
2024-02-08T05:38:42.615Z,9.80
2024-02-08T05:41:10.791Z,9.30
2024-02-08T05:43:47.575Z,9.40
2024-02-08T05:46:30.978Z,8.30
2024-02-08T05:49:12.884Z,9.70
2024-02-08T05:51:47.897Z,5.90
2024-02-08T05:54:21.877Z,8.10
2024-02-08T05:56:51.150Z,6.10
2024-02-08T05:59:19.395Z,8.20
2024-02-08T06:01:48.824Z,9.60
2024-02-08T06:04:23.884Z,8.10
2024-02-08T06:07:00.381Z,10.10
2024-02-08T06:09:46.273Z,13.50
2024-02-08T06:12:25.460Z,9.00
2024-02-08T06:15:00.438Z,9.00
2024-02-08T06:17:34.523Z,7.50
2024-02-08T06:20:02.017Z,9.00
2024-02-08T06:22:30.697Z,12.50
2024-02-08T06:25:20.719Z,10.90
2024-02-08T06:27:51.333Z,9.90
2024-02-08T06:30:23.988Z,10.70
2024-02-08T06:32:58.962Z,16.30
2024-02-08T06:35:30.068Z,14.40
2024-02-08T06:38:03.793Z,14.80
2024-02-08T06:40:50.721Z,8.40
2024-02-08T06:43:21.995Z,13.60
2024-02-08T06:45:52.863Z,8.60
2024-02-08T06:48:33.435Z,10.60
2024-02-08T06:51:22.823Z,11.20
2024-02-08T06:54:09.652Z,11.10
2024-02-08T06:56:56.200Z,11.80
2024-02-08T06:59:42.053Z,9.30
2024-02-08T07:02:28.265Z,13.30
2024-02-08T07:05:13.891Z,14.50
2024-02-08T07:08:00.438Z,39.10
2024-02-08T07:10:46.299Z,43.70
2024-02-08T07:13:31.863Z,16.10
2024-02-08T07:16:17.475Z,16.60
2024-02-08T07:19:07.143Z,16.60
2024-02-08T07:21:55.508Z,15.40
2024-02-08T07:24:41.568Z,55.90
2024-02-08T07:27:26.725Z,21.60
2024-02-08T07:30:12.408Z,17.10
2024-02-08T07:32:58.260Z,13.90
2024-02-08T07:35:43.934Z,17.30
2024-02-08T07:38:10.952Z,18.10
2024-02-08T07:40:38.511Z,13.70
2024-02-08T07:43:15.037Z,13.10
2024-02-08T07:46:05.954Z,13.20
2024-02-08T07:48:40.658Z,16.20
2024-02-08T07:51:08.196Z,15.90
2024-02-08T07:53:46.067Z,17.60
2024-02-08T07:56:25.766Z,13.70
2024-02-08T07:58:54.125Z,18.60
2024-02-08T08:01:21.435Z,16.50
2024-02-08T08:03:52.167Z,15.70
2024-02-08T08:06:19.420Z,12.40
2024-02-08T08:08:58.882Z,13.00
2024-02-08T08:11:32.444Z,13.60
2024-02-08T08:14:02.058Z,16.20
2024-02-08T08:16:32.151Z,18.80
2024-02-08T08:19:09.217Z,15.50
2024-02-08T08:21:56.642Z,14.70
2024-02-08T08:24:27.111Z,13.00
2024-02-08T08:27:08.572Z,11.20
2024-02-08T08:29:46.236Z,15.80
2024-02-08T08:32:33.356Z,12.70
2024-02-08T08:35:20.183Z,17.70
2024-02-08T08:37:47.319Z,16.90
2024-02-08T08:40:39.974Z,17.00
2024-02-08T08:43:12.082Z,20.00
2024-02-08T08:45:42.436Z,15.30
2024-02-08T08:48:09.636Z,16.30
2024-02-08T08:50:36.584Z,19.00
2024-02-08T08:53:18.113Z,22.60
2024-02-08T08:55:51.419Z,18.30
2024-02-08T08:58:23.819Z,21.50
2024-02-08T09:01:00.540Z,15.00
2024-02-08T09:03:27.570Z,16.90
2024-02-08T09:05:58.419Z,15.80
2024-02-08T09:08:35.406Z,14.80
2024-02-08T09:11:05.070Z,16.30
2024-02-08T09:13:38.559Z,17.00
2024-02-08T09:16:25.160Z,12.50
2024-02-08T09:19:03.769Z,16.20
2024-02-08T09:21:37.115Z,14.60
2024-02-08T09:24:05.343Z,15.00
2024-02-08T09:26:56.574Z,16.70
2024-02-08T09:29:30.340Z,14.30
2024-02-08T09:32:16.955Z,13.40
2024-02-08T09:34:44.756Z,16.20
2024-02-08T09:37:12.458Z,14.40
2024-02-08T09:40:00.548Z,12.00
2024-02-08T09:42:29.188Z,12.80
2024-02-08T09:45:17.766Z,24.40
2024-02-08T09:47:54.152Z,19.60
2024-02-08T09:50:37.558Z,16.50
2024-02-08T09:53:20.691Z,112.50
2024-02-08T09:55:58.475Z,26.00
2024-02-08T09:58:39.234Z,75.20
2024-02-08T10:01:45.664Z,23.70
2024-02-08T10:04:26.614Z,15.80
2024-02-08T10:06:57.090Z,16.30
2024-02-08T10:09:48.460Z,77.00
2024-02-08T10:12:22.150Z,20.80
2024-02-08T10:15:00.809Z,19.80
2024-02-08T10:17:42.929Z,15.10
2024-02-08T10:20:22.632Z,21.10
2024-02-08T10:23:11.174Z,17.20
2024-02-08T10:25:56.806Z,29.10
2024-02-08T10:28:25.031Z,32.20
2024-02-08T10:30:55.895Z,23.60
2024-02-08T10:33:25.598Z,32.90
2024-02-08T10:38:33.809Z,19.00
2024-02-08T10:41:00.997Z,180.40
2024-02-08T10:43:35.765Z,235.80
2024-02-08T10:46:06.045Z,197.70
2024-02-08T10:48:33.429Z,67.60
2024-02-08T10:51:04.104Z,179.30
2024-02-08T10:53:50.010Z,30.20
2024-02-08T10:56:19.909Z,20.00
2024-02-08T10:58:56.896Z,18.70
2024-02-08T11:01:34.989Z,356.30
2024-02-08T11:04:08.780Z,70.30
2024-02-08T11:06:44.992Z,21.40
2024-02-08T11:09:20.089Z,37.10
2024-02-08T11:12:24.625Z,38.80
2024-02-08T11:15:01.665Z,59.10
2024-02-08T11:17:34.209Z,186.00
2024-02-08T11:20:05.053Z,87.90
2024-02-08T11:22:42.189Z,21.20
2024-02-08T11:25:20.927Z,49.80
2024-02-08T11:27:49.542Z,13.40
2024-02-08T11:30:34.806Z,427.20
2024-02-08T11:33:04.405Z,201.70
2024-02-08T11:35:37.658Z,119.00
2024-02-08T11:38:28.129Z,45.90
2024-02-08T11:40:59.244Z,45.60
2024-02-08T11:43:27.050Z,44.30
2024-02-08T11:45:58.969Z,22.50
2024-02-08T11:48:30.826Z,8.90
2024-02-08T11:51:02.009Z,51.60
2024-02-08T11:53:33.630Z,12.90
2024-02-08T11:56:10.542Z,163.20
2024-02-08T11:58:38.055Z,62.20
2024-02-08T12:01:05.784Z,59.30
2024-02-08T12:03:33.214Z,72.20
2024-02-08T12:06:02.403Z,235.00
2024-02-08T12:08:37.226Z,19.60
2024-02-08T12:11:10.723Z,83.10
2024-02-08T12:13:40.893Z,10.20
2024-02-08T12:16:08.090Z,9.50
2024-02-08T12:18:37.811Z,53.70
2024-02-08T12:21:11.891Z,83.70
2024-02-08T12:23:42.199Z,15.90
2024-02-08T12:26:13.581Z,22.60
2024-02-08T12:28:44.133Z,40.00
2024-02-08T12:31:19.146Z,64.70
2024-02-08T12:33:52.319Z,10.40
2024-02-08T12:36:25.899Z,10.40
2024-02-08T12:38:56.559Z,15.20
2024-02-08T12:41:23.995Z,9.70
2024-02-08T12:43:53.105Z,9.50
2024-02-08T12:46:23.523Z,8.00
2024-02-08T12:48:51.298Z,9.40
2024-02-08T12:51:21.866Z,9.60
2024-02-08T12:53:50.728Z,11.30
2024-02-08T12:56:20.000Z,9.80
2024-02-08T12:58:46.822Z,14.20
2024-02-08T13:01:20.051Z,29.10
2024-02-08T13:03:48.636Z,80.40
2024-02-08T13:06:15.862Z,31.00
2024-02-08T13:08:46.861Z,19.50
2024-02-08T13:11:21.798Z,28.70
2024-02-08T13:13:49.507Z,19.90
2024-02-08T13:16:18.059Z,10.10
2024-02-08T13:18:54.084Z,7.80
2024-02-08T13:21:26.290Z,8.80
2024-02-08T13:23:57.242Z,11.60
2024-02-08T13:26:30.227Z,22.50
2024-02-08T13:29:03.362Z,12.40
2024-02-08T13:31:30.277Z,9.90
2024-02-08T13:33:57.407Z,9.80
2024-02-08T13:36:26.399Z,9.40
2024-02-08T13:38:53.213Z,8.80
2024-02-08T13:41:20.763Z,10.10
2024-02-08T13:43:50.127Z,10.30
2024-02-08T13:46:17.476Z,10.00
2024-02-08T13:48:44.389Z,27.50
2024-02-08T13:51:11.925Z,13.80
2024-02-08T13:53:39.219Z,11.70
2024-02-08T13:56:13.174Z,10.80
2024-02-08T13:58:40.603Z,9.80
2024-02-08T14:01:07.788Z,11.40
2024-02-08T14:03:36.090Z,12.90
2024-02-08T14:06:03.463Z,9.30
2024-02-08T14:08:33.307Z,20.10
2024-02-08T14:11:00.609Z,9.70
2024-02-08T14:13:37.424Z,11.10
2024-02-08T14:16:16.451Z,11.50
2024-02-08T14:21:26.764Z,12.40
2024-02-08T14:24:01.385Z,10.50
2024-02-08T14:26:39.647Z,13.70
2024-02-08T14:29:10.009Z,16.40
2024-02-08T14:31:39.768Z,17.80
2024-02-08T14:34:09.786Z,16.10
2024-02-08T14:36:40.715Z,18.80
2024-02-08T14:39:27.513Z,15.20
2024-02-08T14:41:57.183Z,16.00
2024-02-08T14:44:33.288Z,16.00
2024-02-08T14:47:08.891Z,16.10
2024-02-08T14:49:58.188Z,19.10
2024-02-08T14:52:28.174Z,23.20
2024-02-08T14:58:00.445Z,131.60
2024-02-08T15:00:33.414Z,228.00
2024-02-08T15:03:24.679Z,40.10
2024-02-08T15:06:06.572Z,29.80
2024-02-08T15:08:47.384Z,22.40
2024-02-08T15:11:48.940Z,31.60
2024-02-08T15:14:19.972Z,45.60
2024-02-08T15:16:49.931Z,48.60
2024-02-08T15:19:23.998Z,51.50
2024-02-08T15:21:54.405Z,26.70
2024-02-08T15:24:24.715Z,27.10
2024-02-08T15:27:07.038Z,38.50
2024-02-08T15:29:46.553Z,169.50
2024-02-08T15:32:32.578Z,37.50
2024-02-08T15:35:05.712Z,28.50
2024-02-08T15:37:43.231Z,25.30
2024-02-08T15:40:16.296Z,22.80
2024-02-08T15:42:45.879Z,18.10
2024-02-08T15:52:46.975Z,29.80
2024-02-08T15:55:17.201Z,30.60
2024-02-08T15:57:57.239Z,33.40
2024-02-08T16:00:56.560Z,29.80
2024-02-08T16:03:27.762Z,33.30
2024-02-08T16:05:58.011Z,32.80
2024-02-08T16:11:20.445Z,34.60
2024-02-08T16:14:04.341Z,35.00
2024-02-08T16:16:35.768Z,31.10
2024-02-08T16:19:22.642Z,29.80
2024-02-08T16:21:49.528Z,34.90
2024-02-08T16:24:19.260Z,48.90
2024-02-08T16:29:36.110Z,53.30
2024-02-08T16:32:08.557Z,72.00
2024-02-08T16:34:51.461Z,76.20
2024-02-08T16:37:37.621Z,89.40
2024-02-08T16:40:19.330Z,110.00
2024-02-08T16:42:48.897Z,90.60
2024-02-08T16:45:20.136Z,96.10
2024-02-08T16:48:09.574Z,84.50
2024-02-08T16:50:46.808Z,91.40
2024-02-08T16:53:15.851Z,74.00
2024-02-08T16:55:48.583Z,61.00
2024-02-08T16:58:21.165Z,59.20
2024-02-08T17:00:56.124Z,71.80
2024-02-08T17:03:51.782Z,75.80
2024-02-08T17:06:27.849Z,82.60
2024-02-08T17:09:24.776Z,71.60
2024-02-08T17:12:01.488Z,85.60
2024-02-08T17:14:36.803Z,75.00
2024-02-08T17:17:15.120Z,65.80
2024-02-08T17:19:48.420Z,65.20
2024-02-08T17:22:25.649Z,72.20
2024-02-08T17:25:08.881Z,76.70
2024-02-08T17:27:35.554Z,73.20
2024-02-08T17:30:06.120Z,73.40
2024-02-08T17:32:44.453Z,77.00
2024-02-08T17:35:11.820Z,86.60
2024-02-08T17:37:49.613Z,93.10
2024-02-08T17:40:31.673Z,89.90
2024-02-08T17:43:10.389Z,101.30
2024-02-08T17:45:56.825Z,106.50
2024-02-08T17:48:33.806Z,114.20
2024-02-08T17:51:00.992Z,142.20
2024-02-08T17:53:31.344Z,166.40
2024-02-08T17:56:08.461Z,124.30
2024-02-08T17:58:36.242Z,98.20
2024-02-08T18:01:08.617Z,77.80
2024-02-08T18:03:37.426Z,82.10
2024-02-08T18:06:06.031Z,83.90
2024-02-08T18:08:41.085Z,85.10
2024-02-08T18:11:10.959Z,76.30
2024-02-08T18:13:39.485Z,73.70
2024-02-08T18:19:05.243Z,50.50
2024-02-08T18:21:35.368Z,57.70
2024-02-08T18:24:07.352Z,65.50
2024-02-08T18:26:36.489Z,62.30
2024-02-08T18:29:04.946Z,61.90
2024-02-08T18:31:36.441Z,68.90
2024-02-08T18:34:03.867Z,74.30
2024-02-08T18:36:31.695Z,78.50
2024-02-08T18:38:59.895Z,120.60
2024-02-08T18:41:27.568Z,283.50
2024-02-08T18:43:58.765Z,219.20
2024-02-08T18:46:30.734Z,120.40
2024-02-08T18:49:02.362Z,132.20
2024-02-08T18:51:32.252Z,98.00
2024-02-08T18:54:02.185Z,155.70
2024-02-08T18:56:32.684Z,241.20
2024-02-08T18:59:01.247Z,253.30
2024-02-08T19:01:33.234Z,255.70
2024-02-08T19:04:02.646Z,229.80
2024-02-08T19:06:29.818Z,522.90
2024-02-08T19:08:56.867Z,606.00
2024-02-08T19:11:27.786Z,489.90
2024-02-08T19:13:58.191Z,467.10
2024-02-08T19:16:33.288Z,416.90
2024-02-08T19:19:04.989Z,155.40
2024-02-08T19:21:33.274Z,176.10
2024-02-08T19:24:05.290Z,157.90
2024-02-08T19:26:38.081Z,214.60
2024-02-08T19:29:09.582Z,406.70
2024-02-08T19:31:43.716Z,202.40
2024-02-08T19:34:23.223Z,126.70
2024-02-08T19:36:55.859Z,86.20
2024-02-08T19:39:30.053Z,80.60
2024-02-08T19:41:57.491Z,70.70
2024-02-08T19:44:28.415Z,72.30
2024-02-08T19:47:13.498Z,85.00
2024-02-08T19:49:48.376Z,96.80
2024-02-08T19:52:22.741Z,94.70
2024-02-08T19:54:57.887Z,103.70
2024-02-08T19:57:36.855Z,102.20
2024-02-08T20:00:11.062Z,101.60
2024-02-08T20:02:41.548Z,95.90
2024-02-08T20:05:09.254Z,86.60
2024-02-08T20:07:42.221Z,71.80
2024-02-08T20:10:15.131Z,71.10
2024-02-08T20:12:53.923Z,333.70
2024-02-08T20:15:28.997Z,127.40
2024-02-08T20:17:56.135Z,148.10
2024-02-08T20:20:25.728Z,176.70
2024-02-08T20:22:53.514Z,155.50
2024-02-08T20:25:28.796Z,138.10
2024-02-08T20:27:58.657Z,88.10
2024-02-08T20:32:54.219Z,109.10
2024-02-08T20:35:21.213Z,93.40
2024-02-08T20:37:51.448Z,82.50
2024-02-08T20:40:23.457Z,67.50
2024-02-08T20:42:55.695Z,55.30
2024-02-08T20:45:28.019Z,53.30
2024-02-08T20:47:54.935Z,53.90
2024-02-08T20:50:22.376Z,51.50
2024-02-08T20:52:52.070Z,56.80
2024-02-08T20:57:52.032Z,55.50
2024-02-08T21:00:24.097Z,86.60
2024-02-08T21:02:54.406Z,81.00
2024-02-08T21:05:22.520Z,69.40
2024-02-08T21:07:50.788Z,54.70
2024-02-08T21:10:26.982Z,45.40
2024-02-08T21:12:54.377Z,47.10
2024-02-08T21:15:24.439Z,43.10
2024-02-08T21:17:56.015Z,40.80
2024-02-08T21:20:24.107Z,45.10
2024-02-08T21:22:53.462Z,46.30
2024-02-08T21:27:54.983Z,48.90
2024-02-08T21:30:22.943Z,44.30
2024-02-08T21:32:50.504Z,52.70
2024-02-08T21:35:18.701Z,59.00
2024-02-08T21:37:46.811Z,56.40
2024-02-08T21:40:14.396Z,51.00
2024-02-08T21:42:41.272Z,49.30
2024-02-08T21:45:13.439Z,66.60
2024-02-08T21:47:40.632Z,51.00
2024-02-08T21:50:08.974Z,52.70
2024-02-08T21:52:38.327Z,49.60
2024-02-08T21:55:08.494Z,48.50
2024-02-08T21:57:42.001Z,49.10
2024-02-08T22:00:12.955Z,48.40
2024-02-08T22:02:41.598Z,50.50
2024-02-08T22:05:12.587Z,56.80
2024-02-08T22:07:41.512Z,56.10
2024-02-08T22:10:13.516Z,47.70
2024-02-08T22:12:46.871Z,51.40
2024-02-08T22:15:15.062Z,48.60
2024-02-08T22:17:45.479Z,45.70
2024-02-08T22:20:13.593Z,49.00
2024-02-08T22:22:45.405Z,46.90
2024-02-08T22:25:17.037Z,56.30
2024-02-08T22:27:48.740Z,41.50
2024-02-08T22:30:16.061Z,45.60
2024-02-08T22:33:04.865Z,49.00
2024-02-08T22:35:31.666Z,41.00
2024-02-08T22:37:59.032Z,38.10
2024-02-08T22:40:26.482Z,35.50
2024-02-08T22:42:53.489Z,47.80
2024-02-08T22:45:22.630Z,45.50
2024-02-08T22:47:51.093Z,36.70
2024-02-08T22:50:18.585Z,34.00
2024-02-08T22:52:46.627Z,41.30
2024-02-08T22:55:16.737Z,39.10
2024-02-08T22:57:43.931Z,41.40
2024-02-08T23:00:25.228Z,38.50
2024-02-08T23:02:55.349Z,36.50
2024-02-08T23:05:28.090Z,35.10
2024-02-08T23:07:55.220Z,39.20
2024-02-08T23:10:23.331Z,40.50
2024-02-08T23:12:53.588Z,39.30
2024-02-08T23:15:21.560Z,36.80
2024-02-08T23:17:56.675Z,32.20
2024-02-08T23:20:23.765Z,34.00
2024-02-08T23:22:54.594Z,34.00
2024-02-08T23:25:24.690Z,34.70
2024-02-08T23:27:52.132Z,35.10
2024-02-08T23:30:20.851Z,31.20
2024-02-08T23:32:52.451Z,33.20
2024-02-08T23:35:20.477Z,37.50
2024-02-08T23:37:47.719Z,37.40
2024-02-08T23:40:16.050Z,34.10
2024-02-08T23:42:43.557Z,41.80
2024-02-08T23:45:16.538Z,38.00
2024-02-08T23:47:44.659Z,38.70
2024-02-08T23:50:16.919Z,31.10
2024-02-08T23:52:46.099Z,36.10
2024-02-08T23:55:14.998Z,37.00
2024-02-08T23:57:42.246Z,35.10
